Historyczne dane pomiarowe

Dodano dane terminowe – wersja testowa.

Dane z okresu 1951-2019

Wersja bazy: 1.34 [2019-03-16, lista zmian], aktualizacja planowana na 2019-04-15

Dane meteo z obszaru Polski uzyskane na podstawie danych udostępnionych przez Instytut Meteorologii i Gospodarki Wodnej – Państwowy Instytut Badawczy.

 

Wybierz Datę:    

       

TemperaturaWilgotnośćWiatrCiśnienieOpadyŚniegCzas trwania zjawisk
 Stacja t tx tn tng RH VA  wxwx mslp ppp RRR   cm mm wxwxwxwxwxwxwx
1997-10-11 11.1 16.8 8.6 8.2 93.5- 7.7 3.7---- 3.4------------
1997-10-12 8.5 11.0 6.7 5.5 94.5- 7.3 4.7---- 14.9------------
1997-10-13 6.3 9.9 3.8 3.2 93.5- 4.0 4.0---- 3.6------------
1997-10-14 5.4 9.2 2.5 0.8 90.8- 6.0 3.7---- 0.9------------
1997-10-15 5.5 6.8 4.8 4.5 96.3- 8.0 2.0---- 6.3------------
1997-10-16 2.4 5.0 0.3 -2.4 95.5- 6.0 3.3---- 5.2------------
1997-10-17 2.8 4.6 0.7 -0.5 94.8- 5.0 2.7---- 0.0------------
1997-10-18 2.2 8.2 -2.7 -6.0 92.3- 3.3 1.7---- 0.0------------
1997-10-19 5.8 11.3 1.6 -0.4 90.3- 1.0 4.3---- 0.0------------
1997-10-20 8.0 13.0 4.2 1.4 88.8- 3.3 4.7---- 0.0------------
1997-10-21 4.6 9.8 2.1 0.2 90.5- 3.7 5.0---- 0.3------------
1997-10-22 0.4 4.0 -2.8 -4.9 93.3- 2.7 3.0---- 0.0------------
1997-10-23 2.6 6.8 -1.2 -3.1 92.8- 3.0 1.7---- 1.4------------
1997-10-24 2.6 5.4 0.2 -1.3 91.0- 7.0 2.7---- 0.6------------
1997-10-25 -0.3 2.2 -2.2 -3.2 92.0- 7.3 4.7---- 0.2------------
1997-10-26 -0.8 0.5 -2.3 -4.3 94.5- 7.3 7.0---- 0.1------------
1997-10-27 -1.9 -0.1 -3.2 -5.2 95.5- 8.0 4.7---- 0.0------------
1997-10-28 -3.9 -2.1 -5.6 -5.9 90.8- 8.0 3.3---- 0.2------------
1997-10-29 -1.2 1.9 -4.3 -7.7 97.5- 5.7 3.7---- 0.0------------
1997-10-30 1.6 2.8 0.2 -2.0 95.3- 8.0 3.0---- 0.0------------
1997-10-31 2.8 4.0 1.6 0.9 96.5- 7.7 2.3---- 1.7------------
1997-11-01 0.9 2.9 -0.3 -0.4 90.3- 6.7 3.3---- 0.0------------
1997-11-02 0.9 4.7 -2.4 -3.2 88.3- 3.0 3.0---- 0.4------------
1997-11-03 2.2 5.1 0.6 0.3 91.3- 8.0 6.0---- 2.7------------
1997-11-04 -1.6 1.0 -2.7 -5.1 89.3- 2.0 2.7---- 0.0------------
1997-11-05 -2.4 2.1 -6.1 -9.3 93.5- 1.0 4.7---- 0.0------------
1997-11-06 2.9 6.7 -1.0 -2.7 86.8- 4.3 5.0---- 0.0------------
1997-11-07 12.4 17.8 5.9 4.2 78.3- 2.7 4.3---- 0.0------------
1997-11-08 13.4 16.9 11.4 7.9 85.5- 6.0 3.3---- 0.0------------
1997-11-09 11.9 14.6 10.8 10.4 89.5- 8.0 2.3---- 0.0------------
1187.8 ms

 

Źródłem pochodzenia danych jest Instytut Meteorologii i Gospodarki Wodnej – Państwowy Instytut Badawczy. Dane Instytutu Meteorologii i Gospodarki Wodnej – Państwowego Instytutu Badawczego zostały przetworzone.

Dane źródłowe można odnaleźć na stronie https://dane.imgw.pl